Time;durP1;ratioP1;P1;durP2;ratioP2;P2;SDS_P1;SDS_P2;PMS_P1;PMS_P2;Temp;Humidity;BMP_temperature;BMP_pressure;BME280_temperature;BME280_humidity;BME280_pressure;Samples;Min_cycle;Max_cycle;Signal;HPM_P1;HPM_P2
2022/05/10 00:01:47;;;;;;;12.25;4.68;;;15.10;70.00;;;;;;5013672;28;20401;-42
2022/05/10 00:04:14;;;;;;;10.00;4.22;;;15.10;70.50;;;;;;5012735;28;20053;-42
2022/05/10 00:06:42;;;;;;;14.35;4.68;;;15.10;70.50;;;;;;5011055;28;20502;-43
2022/05/10 00:09:09;;;;;;;10.40;4.07;;;15.00;70.50;;;;;;5009256;28;20054;-42
2022/05/10 00:11:36;;;;;;;13.85;4.28;;;15.00;70.20;;;;;;5013092;28;20072;-42
2022/05/10 00:14:03;;;;;;;9.82;3.90;;;14.90;70.60;;;;;;5004728;28;20050;-42
2022/05/10 00:16:29;;;;;;;9.43;4.05;;;14.90;70.40;;;;;;5008826;28;20075;-42
2022/05/10 00:18:57;;;;;;;10.02;4.03;;;14.90;70.40;;;;;;5013202;28;20052;-42
2022/05/10 00:21:25;;;;;;;8.75;3.90;;;14.80;70.70;;;;;;5013414;28;20050;-42
2022/05/10 00:23:51;;;;;;;9.98;3.85;;;14.80;70.90;;;;;;5012460;28;20049;-41
2022/05/10 00:26:18;;;;;;;10.00;4.18;;;14.80;71.00;;;;;;5010235;28;20046;-42
2022/05/10 00:28:45;;;;;;;12.63;4.05;;;14.70;71.20;;;;;;5012259;28;20050;-42
2022/05/10 00:31:11;;;;;;;10.85;4.00;;;14.60;72.10;;;;;;5011213;28;20056;-42
2022/05/10 00:33:38;;;;;;;14.48;4.35;;;14.70;72.60;;;;;;5012958;28;20061;-42
2022/05/10 00:36:06;;;;;;;14.02;4.53;;;14.60;72.20;;;;;;5004965;28;20054;-42
2022/05/10 00:38:34;;;;;;;11.55;3.92;;;14.60;72.30;;;;;;5010875;28;20499;-42
2022/05/10 00:41:06;;;;;;;11.18;4.10;;;14.60;72.40;;;;;;5010942;28;20060;-42
2022/05/10 00:43:35;;;;;;;8.18;3.58;;;14.60;73.50;;;;;;5011119;28;20050;-42
2022/05/10 00:46:04;;;;;;;9.77;4.13;;;14.50;73.10;;;;;;5011719;28;20065;-42
2022/05/10 00:48:32;;;;;;;9.48;4.68;;;14.50;73.10;;;;;;5008788;28;20053;-42
2022/05/10 00:51:03;;;;;;;10.30;4.53;;;14.50;73.90;;;;;;5012687;28;20060;-41
2022/05/10 00:53:47;;;;;;;9.93;3.75;;;14.50;74.40;;;;;;5003820;28;20058;-42
2022/05/10 00:56:19;;;;;;;13.18;4.43;;;14.50;74.30;;;;;;5012038;28;20052;-42
2022/05/10 00:58:46;;;;;;;;;;;14.40;74.60;;;;;;5011823;28;20060;-42
2022/05/10 01:01:15;;;;;;;11.32;4.28;;;14.30;72.60;;;;;;5012374;28;19943;-42
2022/05/10 01:03:46;;;;;;;14.13;4.38;;;14.30;75.20;;;;;;5005432;28;20611;-41
2022/05/10 01:06:24;;;;;;;;;;;14.30;75.20;;;;;;5009297;28;20045;-42
2022/05/10 01:08:55;;;;;;;8.50;3.55;;;14.30;73.20;;;;;;5001106;28;19993;-42
2022/05/10 01:11:24;;;;;;;10.60;4.28;;;14.20;74.60;;;;;;5012542;28;20046;-42
2022/05/10 01:13:52;;;;;;;13.43;4.25;;;14.20;74.50;;;;;;5009089;28;20129;-42
2022/05/10 01:16:20;;;;;;;7.97;3.85;;;14.20;74.70;;;;;;5010192;28;20505;-42
2022/05/10 01:18:47;;;;;;;8.35;3.95;;;14.20;75.00;;;;;;5011134;28;20104;-41
2022/05/10 01:21:29;;;;;;;10.27;4.38;;;14.20;74.90;;;;;;5003448;28;20495;-42
2022/05/10 01:24:15;;;;;;;14.38;4.45;;;14.20;74.60;;;;;;5008999;28;20053;-42
2022/05/10 01:26:49;;;;;;;9.15;3.60;;;14.20;74.60;;;;;;5011788;28;20469;-42
2022/05/10 01:29:20;;;;;;;7.65;3.92;;;14.20;74.60;;;;;;5011917;28;20410;-41
2022/05/10 01:31:48;;;;;;;12.80;5.10;;;14.10;75.10;;;;;;5009302;28;20049;-42
2022/05/10 01:34:16;;;;;;;10.70;4.45;;;14.10;75.30;;;;;;5011747;28;20512;-42
2022/05/10 01:36:44;;;;;;;13.30;4.85;;;14.10;75.30;;;;;;5010887;28;20042;-42
2022/05/10 01:39:14;;;;;;;12.32;4.45;;;14.10;75.70;;;;;;5010431;28;20418;-42
2022/05/10 01:41:48;;;;;;;12.48;5.07;;;14.10;75.90;;;;;;5011288;28;21269;-41
2022/05/10 01:44:21;;;;;;;12.60;4.85;;;14.10;76.50;;;;;;5007173;28;20498;-41
2022/05/10 01:46:49;;;;;;;10.30;4.32;;;14.00;76.70;;;;;;5011153;28;20053;-42
2022/05/10 01:49:23;;;;;;;11.30;4.35;;;14.00;76.90;;;;;;5010479;28;20057;-42
2022/05/10 01:51:53;;;;;;;11.18;4.97;;;14.00;76.40;;;;;;5007074;28;20073;-42
2022/05/10 01:54:59;;;;;;;10.60;5.00;;;14.00;76.60;;;;;;5005205;28;20054;-42
2022/05/10 01:57:26;;;;;;;12.23;6.47;;;14.00;76.00;;;;;;5008919;28;20521;-42
2022/05/10 01:59:58;;;;;;;14.23;6.50;;;14.00;77.90;;;;;;5003960;28;20387;-41
2022/05/10 02:02:25;;;;;;;13.32;6.00;;;13.90;79.00;;;;;;5007088;28;20046;-41
2022/05/10 02:04:53;;;;;;;20.40;6.72;;;13.90;79.60;;;;;;5009553;28;20052;-42
2022/05/10 02:07:21;;;;;;;19.00;7.55;;;13.90;81.00;;;;;;5012614;28;20129;-42
2022/05/10 02:09:50;;;;;;;17.63;6.25;;;13.90;81.20;;;;;;5012919;28;20055;-42
2022/05/10 02:12:18;;;;;;;19.48;6.88;;;13.80;81.30;;;;;;5018243;28;20391;-41
2022/05/10 02:14:47;;;;;;;14.35;5.95;;;13.90;81.30;;;;;;5015769;28;20038;-42
2022/05/10 02:17:17;;;;;;;16.63;6.53;;;13.80;81.00;;;;;;5015506;28;20038;-42
2022/05/10 02:19:46;;;;;;;13.57;5.60;;;13.80;81.20;;;;;;5015944;28;20053;-42
2022/05/10 02:22:16;;;;;;;10.93;4.90;;;13.90;81.10;;;;;;5018520;28;20052;-42
2022/05/10 02:24:44;;;;;;;15.93;5.43;;;13.80;80.70;;;;;;5013475;28;20053;-42
2022/05/10 02:27:14;;;;;;;16.13;6.75;;;13.80;80.50;;;;;;5018453;28;20285;-41
2022/05/10 02:29:42;;;;;;;14.40;6.07;;;13.80;81.90;;;;;;5016977;28;20058;-42
2022/05/10 02:34:56;;;;;;;15.82;6.60;;;13.80;83.10;;;;;;5015179;28;20498;-42
2022/05/10 02:37:23;;;;;;;21.85;6.95;;;13.80;83.20;;;;;;5017034;28;20057;-42
2022/05/10 02:39:49;;;;;;;14.90;7.25;;;13.80;83.30;;;;;;5017264;28;20050;-42
2022/05/10 02:42:16;;;;;;;19.95;7.30;;;13.80;84.20;;;;;;5017896;28;20481;-42
2022/05/10 02:44:43;;;;;;;19.50;6.38;;;13.80;84.40;;;;;;5006269;28;20050;-42
2022/05/10 02:47:10;;;;;;;14.35;6.80;;;13.80;84.30;;;;;;5018204;28;20041;-42
2022/05/10 02:49:38;;;;;;;18.65;7.63;;;13.80;84.30;;;;;;5016266;28;20050;-42
2022/05/10 02:52:06;;;;;;;17.70;8.60;;;13.80;84.70;;;;;;5017805;28;20056;-42
2022/05/10 02:54:33;;;;;;;18.35;8.35;;;13.80;86.00;;;;;;5014246;28;20052;-41
2022/05/10 02:57:00;;;;;;;22.27;8.80;;;13.80;86.40;;;;;;5015697;28;20486;-41
2022/05/10 02:59:29;;;;;;;19.85;8.30;;;13.80;87.10;;;;;;5016196;28;20045;-42
2022/05/10 03:01:58;;;;;;;21.83;8.43;;;13.80;87.50;;;;;;5017851;28;20048;-41
2022/05/10 03:04:25;;;;;;;18.08;9.20;;;13.80;87.70;;;;;;5016013;28;20054;-42
2022/05/10 03:06:56;;;;;;;20.70;9.05;;;13.80;88.10;;;;;;5016026;28;20056;-42
2022/05/10 03:09:24;;;;;;;22.92;8.43;;;13.80;88.70;;;;;;5016996;28;20052;-42
2022/05/10 03:11:51;;;;;;;17.50;8.55;;;13.80;88.80;;;;;;5017553;28;20512;-42
2022/05/10 03:14:19;;;;;;;19.80;8.38;;;13.80;88.90;;;;;;5015162;28;20050;-42
2022/05/10 03:16:45;;;;;;;20.58;9.50;;;13.90;89.60;;;;;;5015912;28;20069;-42
2022/05/10 03:19:12;;;;;;;17.80;9.20;;;13.90;89.60;;;;;;5016302;28;20139;-42
2022/05/10 03:21:39;;;;;;;21.52;9.90;;;13.90;90.10;;;;;;5014896;28;20482;-42
2022/05/10 03:24:06;;;;;;;14.23;7.82;;;13.90;90.00;;;;;;5011036;28;20058;-43
2022/05/10 03:26:35;;;;;;;18.45;8.48;;;13.90;89.50;;;;;;5007495;28;20054;-42
2022/05/10 03:29:01;;;;;;;19.88;8.65;;;13.90;89.60;;;;;;5014453;28;20060;-42
2022/05/10 03:31:28;;;;;;;24.20;9.50;;;13.90;89.70;;;;;;5014693;28;20050;-42
2022/05/10 03:36:39;;;;;;;21.80;10.15;;;13.90;89.90;;;;;;5012803;28;20065;-42
2022/05/10 03:39:06;;;;;;;19.10;9.05;;;13.90;90.10;;;;;;5014868;28;20057;-42
2022/05/10 03:41:33;;;;;;;20.35;9.98;;;14.00;90.20;;;;;;5014232;28;20041;-41
2022/05/10 03:44:01;;;;;;;16.33;8.40;;;13.90;90.30;;;;;;5005681;28;20050;-42
2022/05/10 03:46:27;;;;;;;15.02;7.20;;;13.90;90.00;;;;;;5007908;28;20474;-42
2022/05/10 03:48:54;;;;;;;17.88;8.30;;;13.90;89.40;;;;;;5013064;28;20046;-42
2022/05/10 03:51:21;;;;;;;23.13;9.75;;;13.90;89.50;;;;;;5005558;28;20129;-42
2022/05/10 03:53:48;;;;;;;19.05;9.38;;;13.90;90.10;;;;;;5019871;28;20149;-42
2022/05/10 03:56:14;;;;;;;13.75;7.65;;;13.90;90.30;;;;;;5010537;28;20046;-42
2022/05/10 03:58:41;;;;;;;15.48;8.40;;;13.90;90.00;;;;;;5013180;28;20068;-41
2022/05/10 04:01:09;;;;;;;11.05;7.25;;;13.90;90.10;;;;;;5012011;28;20049;-42
2022/05/10 04:03:36;;;;;;;18.98;9.77;;;13.80;89.30;;;;;;5010446;28;20411;-42
2022/05/10 04:06:03;;;;;;;19.10;10.65;;;13.90;89.20;;;;;;5003277;28;20052;-42
2022/05/10 04:08:30;;;;;;;18.17;9.13;;;13.80;90.30;;;;;;5012088;28;20081;-42
2022/05/10 04:11:01;;;;;;;17.95;9.93;;;13.80;90.70;;;;;;5010516;28;20050;-42
2022/05/10 04:13:28;;;;;;;21.00;9.80;;;13.80;90.40;;;;;;5008991;28;20049;-42
2022/05/10 04:15:55;;;;;;;18.00;8.85;;;13.80;90.50;;;;;;5005957;28;20057;-42
2022/05/10 04:18:23;;;;;;;18.20;10.38;;;13.80;90.70;;;;;;5009546;28;20050;-42
2022/05/10 04:20:49;;;;;;;18.48;10.05;;;13.80;91.00;;;;;;5010966;28;20046;-42
2022/05/10 04:23:16;;;;;;;15.88;9.45;;;13.90;90.70;;;;;;5010520;28;20415;-42
2022/05/10 04:25:43;;;;;;;20.45;11.43;;;13.80;90.90;;;;;;5011951;28;20050;-42
2022/05/10 04:28:10;;;;;;;19.38;8.85;;;13.90;90.90;;;;;;5012625;28;20478;-42
2022/05/10 04:30:36;;;;;;;18.70;11.23;;;13.90;90.70;;;;;;5008032;28;20486;-41
2022/05/10 04:33:03;;;;;;;19.85;10.65;;;13.90;90.80;;;;;;5005764;28;20466;-41
2022/05/10 04:35:31;;;;;;;22.60;10.30;;;13.90;91.00;;;;;;5009034;28;20049;-41
2022/05/10 04:38:01;;;;;;;23.48;10.00;;;13.90;91.10;;;;;;5003877;28;20050;-41
2022/05/10 04:43:11;;;;;;;20.55;9.85;;;13.90;91.10;;;;;;5012203;28;20054;-41
2022/05/10 04:45:39;;;;;;;23.33;11.55;;;13.90;91.20;;;;;;5010440;28;20413;-42
2022/05/10 04:48:06;;;;;;;16.73;11.10;;;14.00;91.50;;;;;;5008814;28;20050;-42
2022/05/10 04:50:34;;;;;;;22.45;11.82;;;14.00;91.50;;;;;;5011333;28;20049;-42
2022/05/10 04:53:01;;;;;;;23.38;12.02;;;14.00;91.70;;;;;;5012849;28;20046;-42
2022/05/10 04:55:28;;;;;;;21.73;11.95;;;14.10;91.80;;;;;;5012542;28;20050;-42
2022/05/10 04:57:55;;;;;;;23.35;12.23;;;14.10;92.00;;;;;;5011768;28;20432;-42
2022/05/10 05:00:23;;;;;;;24.60;12.93;;;14.10;92.00;;;;;;5012613;28;20052;-42
2022/05/10 05:02:49;;;;;;;28.00;12.25;;;14.20;92.20;;;;;;5011252;28;20054;-42
2022/05/10 05:05:16;;;;;;;23.73;12.30;;;14.20;92.20;;;;;;5011634;28;20402;-42
2022/05/10 05:07:44;;;;;;;21.90;11.63;;;14.20;92.30;;;;;;5003550;28;20042;-42
2022/05/10 05:10:11;;;;;;;20.83;12.27;;;14.30;92.10;;;;;;5002924;28;21408;-42
2022/05/10 05:12:38;;;;;;;29.35;10.82;;;14.30;92.20;;;;;;5001654;28;20057;-42
2022/05/10 05:15:06;;;;;;;21.88;12.93;;;14.30;92.10;;;;;;5004337;28;20052;-44
2022/05/10 05:17:33;;;;;;;25.45;12.18;;;14.40;92.10;;;;;;5000462;28;20041;-43
2022/05/10 05:19:59;;;;;;;25.52;12.30;;;14.40;92.10;;;;;;5009924;28;20064;-43
2022/05/10 05:22:26;;;;;;;20.63;12.02;;;14.50;92.20;;;;;;5001304;28;20045;-43
2022/05/10 05:24:54;;;;;;;26.80;12.27;;;14.50;92.30;;;;;;4991850;28;20061;-43
2022/05/10 05:27:21;;;;;;;29.23;11.90;;;14.50;92.40;;;;;;5007766;28;20038;-43
2022/05/10 05:29:48;;;;;;;23.30;12.65;;;14.60;92.30;;;;;;5010324;28;20053;-43
2022/05/10 05:32:15;;;;;;;29.02;12.52;;;14.60;92.50;;;;;;5004491;28;20522;-43
2022/05/10 05:34:41;;;;;;;19.77;11.75;;;14.70;92.40;;;;;;5009847;28;20541;-43
2022/05/10 05:39:52;;;;;;;26.05;11.80;;;14.80;92.40;;;;;;5002871;28;20049;-43
2022/05/10 05:42:20;;;;;;;29.35;12.43;;;14.80;92.30;;;;;;4999430;28;20064;-43
2022/05/10 05:44:47;;;;;;;24.83;11.73;;;14.90;92.30;;;;;;5010153;28;20141;-42
2022/05/10 05:47:14;;;;;;;25.50;12.13;;;14.90;92.20;;;;;;5006553;28;20054;-43
2022/05/10 05:49:40;;;;;;;19.35;12.00;;;15.00;92.20;;;;;;5002063;28;20133;-43
2022/05/10 05:52:07;;;;;;;22.90;12.02;;;15.00;92.10;;;;;;5007725;28;20060;-43
2022/05/10 05:54:34;;;;;;;27.52;11.68;;;15.10;92.20;;;;;;5011455;28;20068;-43
2022/05/10 05:57:01;;;;;;;25.95;12.52;;;15.20;92.20;;;;;;5003626;28;20046;-43
2022/05/10 05:59:29;;;;;;;26.50;12.25;;;15.20;92.20;;;;;;5011034;28;20056;-43
2022/05/10 06:01:56;;;;;;;26.05;12.25;;;15.30;92.10;;;;;;5004326;28;20054;-43
2022/05/10 06:04:22;;;;;;;24.88;11.63;;;15.40;92.10;;;;;;5012013;28;20052;-43
2022/05/10 06:06:49;;;;;;;37.22;12.23;;;15.50;91.90;;;;;;5010736;28;20128;-43
2022/05/10 06:09:19;;;;;;;31.73;12.13;;;15.50;91.80;;;;;;5011247;28;20446;-43
2022/05/10 06:11:46;;;;;;;28.35;12.60;;;15.60;91.80;;;;;;5009166;28;20061;-43
2022/05/10 06:14:13;;;;;;;22.15;12.10;;;15.70;91.80;;;;;;5011462;28;20049;-43
2022/05/10 06:16:41;;;;;;;20.48;11.55;;;15.80;91.70;;;;;;5010675;28;20474;-43
2022/05/10 06:19:08;;;;;;;27.50;11.90;;;15.90;91.60;;;;;;5011749;28;20521;-43
2022/05/10 06:21:35;;;;;;;22.95;10.95;;;16.00;91.50;;;;;;5011729;28;20046;-44
2022/05/10 06:24:02;;;;;;;29.92;11.32;;;16.10;91.40;;;;;;5011275;28;20133;-43
2022/05/10 06:26:29;;;;;;;25.98;10.73;;;16.20;91.20;;;;;;5008215;28;20417;-43
2022/05/10 06:28:55;;;;;;;18.85;10.30;;;16.40;91.10;;;;;;5011222;28;20050;-41
2022/05/10 06:31:22;;;;;;;25.25;10.70;;;16.60;90.90;;;;;;5009371;28;20050;-42
2022/05/10 06:33:50;;;;;;;23.45;11.05;;;16.70;90.70;;;;;;5004799;28;20064;-42
2022/05/10 06:36:17;;;;;;;24.60;11.00;;;16.80;90.50;;;;;;5010965;28;20524;-41
2022/05/10 06:38:43;;;;;;;20.60;10.73;;;17.00;90.40;;;;;;5007092;28;20080;-41
2022/05/10 06:41:10;;;;;;;17.88;10.25;;;17.10;90.20;;;;;;5008192;28;20050;-42
2022/05/10 06:43:38;;;;;;;23.77;10.20;;;17.20;89.90;;;;;;4995933;28;20050;-42
2022/05/10 06:46:09;;;;;;;24.73;11.10;;;17.30;89.50;;;;;;4991795;28;20434;-41
2022/05/10 06:48:35;;;;;;;16.17;10.25;;;17.40;89.10;;;;;;4991766;28;20054;-42
2022/05/10 06:51:06;;;;;;;22.20;10.45;;;17.50;89.00;;;;;;4991853;28;20065;-41
2022/05/10 06:53:33;;;;;;;26.23;11.10;;;17.60;88.80;;;;;;4974505;28;20058;-42
2022/05/10 06:55:59;;;;;;;23.95;9.98;;;17.80;88.40;;;;;;4991887;28;20297;-43
2022/05/10 06:58:26;;;;;;;22.40;10.32;;;17.90;88.10;;;;;;4977475;28;20055;-42
2022/05/10 07:00:53;;;;;;;23.10;10.23;;;18.00;87.50;;;;;;4978594;28;20053;-42
2022/05/10 07:03:25;;;;;;;21.85;10.00;;;18.20;86.90;;;;;;4978433;28;20045;-42
2022/05/10 07:05:52;;;;;;;21.42;9.70;;;18.30;85.60;;;;;;4977824;28;20054;-43
2022/05/10 07:08:20;;;;;;;18.10;9.27;;;18.50;85.50;;;;;;4995311;28;20042;-42
2022/05/10 07:10:46;;;;;;;16.50;8.52;;;18.70;84.70;;;;;;4995217;28;20054;-43
2022/05/10 07:13:15;;;;;;;18.48;8.75;;;18.80;84.00;;;;;;4995125;28;20490;-43
2022/05/10 07:15:42;;;;;;;13.88;7.90;;;19.00;82.70;;;;;;4994945;28;20380;-43
2022/05/10 07:18:09;;;;;;;19.45;8.27;;;19.20;82.30;;;;;;4977775;28;20136;-42
2022/05/10 07:20:35;;;;;;;18.25;8.35;;;19.40;81.40;;;;;;4994589;28;20056;-42
2022/05/10 07:23:02;;;;;;;19.65;8.40;;;19.60;80.80;;;;;;4994851;28;20406;-42
2022/05/10 07:25:30;;;;;;;19.02;7.97;;;19.80;80.10;;;;;;4994754;28;20042;-42
2022/05/10 07:27:57;;;;;;;18.98;8.15;;;19.90;78.80;;;;;;4994352;28;20051;-42
2022/05/10 07:30:24;;;;;;;23.98;8.63;;;20.00;79.10;;;;;;4994980;28;20053;-43
2022/05/10 07:32:51;;;;;;;16.60;8.82;;;20.10;78.70;;;;;;4994820;28;20053;-43
2022/05/10 07:36:23;;;;;;;15.95;7.82;;;20.10;78.20;;;;;;4994228;28;20072;-43
2022/05/10 07:38:05;;;;;;;19.73;8.82;;;20.30;77.70;;;;;;4994031;28;20521;-43
2022/05/10 07:40:33;;;;;;;19.63;9.40;;;20.40;77.40;;;;;;4993829;28;20065;-43
2022/05/10 07:42:59;;;;;;;17.15;8.95;;;20.50;77.10;;;;;;5001589;28;20409;-42
2022/05/10 07:45:26;;;;;;;23.23;8.45;;;20.70;76.70;;;;;;5013972;28;20160;-42
2022/05/10 07:47:53;;;;;;;17.80;8.60;;;20.80;76.20;;;;;;5013802;28;20050;-43
2022/05/10 07:50:19;;;;;;;20.83;8.65;;;20.90;75.90;;;;;;5012426;28;20056;-44
2022/05/10 07:52:46;;;;;;;15.98;9.10;;;21.10;75.20;;;;;;5013984;28;20514;-43
2022/05/10 07:55:13;;;;;;;15.23;8.63;;;21.20;74.70;;;;;;5013679;28;20716;-43
2022/05/10 07:57:42;;;;;;;15.75;7.90;;;21.30;74.00;;;;;;5004790;28;20097;-43
2022/05/10 08:00:09;;;;;;;18.27;8.63;;;21.40;73.60;;;;;;5004903;28;20049;-43
2022/05/10 08:02:36;;;;;;;16.55;8.05;;;21.60;73.50;;;;;;5004457;28;20054;-43
2022/05/10 08:05:03;;;;;;;22.15;8.25;;;21.70;72.00;;;;;;5013852;28;20068;-43
2022/05/10 08:07:30;;;;;;;15.95;7.65;;;21.80;71.80;;;;;;5011993;28;20142;-43
2022/05/10 08:09:56;;;;;;;22.10;7.93;;;21.90;71.50;;;;;;5010306;28;20490;-43
2022/05/10 08:12:23;;;;;;;20.25;7.18;;;22.00;71.60;;;;;;5013710;28;20054;-42
2022/05/10 08:14:51;;;;;;;13.57;7.72;;;22.10;71.00;;;;;;5012680;28;20053;-42
2022/05/10 08:17:18;;;;;;;14.10;7.10;;;22.20;70.10;;;;;;4998810;28;20064;-42
2022/05/10 08:19:45;;;;;;;15.30;6.95;;;22.40;70.10;;;;;;5011403;28;20465;-42
2022/05/10 08:22:12;;;;;;;19.17;7.43;;;22.50;69.60;;;;;;5012150;28;20050;-43
2022/05/10 08:24:39;;;;;;;12.73;7.00;;;22.60;68.80;;;;;;5011910;28;20049;-43
2022/05/10 08:27:06;;;;;;;17.80;7.93;;;22.60;69.10;;;;;;5005764;28;20048;-42
2022/05/10 08:29:32;;;;;;;19.73;7.97;;;22.50;67.90;;;;;;5013355;28;20140;-42
2022/05/10 08:32:01;;;;;;;22.00;8.18;;;22.50;67.80;;;;;;5004154;28;20061;-43
2022/05/10 08:34:28;;;;;;;17.98;6.60;;;22.40;68.30;;;;;;5012842;28;20282;-43
2022/05/10 08:36:56;;;;;;;16.48;7.80;;;22.30;67.90;;;;;;5012156;28;20076;-42
2022/05/10 08:39:23;;;;;;;18.92;7.50;;;22.30;68.00;;;;;;5003805;28;20049;-42
2022/05/10 08:41:52;;;;;;;12.18;7.50;;;22.40;68.20;;;;;;5012730;28;20056;-42
2022/05/10 08:44:19;;;;;;;14.98;7.22;;;22.30;67.50;;;;;;5002495;28;20414;-42
2022/05/10 08:46:52;;;;;;;21.75;7.53;;;22.30;67.60;;;;;;5012637;28;20050;-43
2022/05/10 08:49:23;;;;;;;12.60;7.10;;;22.30;68.30;;;;;;5003982;28;20115;-42
2022/05/10 08:51:50;;;;;;;14.18;7.10;;;22.30;66.80;;;;;;5012750;28;20136;-43
2022/05/10 08:54:17;;;;;;;16.73;7.95;;;22.20;67.20;;;;;;5012613;28;20149;-42
2022/05/10 08:56:46;;;;;;;14.43;7.18;;;22.10;67.80;;;;;;5012791;28;20048;-42
2022/05/10 08:59:18;;;;;;;15.77;7.07;;;22.10;67.30;;;;;;5012374;28;20131;-42
2022/05/10 09:01:50;;;;;;;12.32;7.50;;;22.10;67.50;;;;;;5012632;28;20050;-42
2022/05/10 09:04:25;;;;;;;16.35;7.88;;;22.20;67.70;;;;;;5012443;28;20049;-43
2022/05/10 09:06:55;;;;;;;19.17;8.13;;;22.10;67.70;;;;;;5012479;28;20498;-43
2022/05/10 09:09:25;;;;;;;15.23;8.20;;;22.20;67.40;;;;;;5011659;28;20192;-42
2022/05/10 09:11:53;;;;;;;16.67;8.13;;;22.20;67.90;;;;;;5010253;28;20605;-42
2022/05/10 09:14:26;;;;;;;17.77;8.18;;;22.20;67.80;;;;;;5007374;28;20050;-42
2022/05/10 09:16:53;;;;;;;20.90;7.93;;;22.20;68.10;;;;;;5002780;28;20050;-43
2022/05/10 09:19:21;;;;;;;19.45;8.40;;;22.20;68.50;;;;;;5011363;28;20042;-42
2022/05/10 09:21:50;;;;;;;15.68;8.07;;;22.30;68.60;;;;;;5012571;28;20060;-43
2022/05/10 09:24:21;;;;;;;16.38;9.20;;;22.40;68.80;;;;;;5003118;28;20056;-43
2022/05/10 09:26:49;;;;;;;17.23;9.07;;;22.40;68.40;;;;;;5011114;28;20061;-42
2022/05/10 09:29:18;;;;;;;17.98;9.30;;;22.30;68.30;;;;;;5011200;28;20050;-43
2022/05/10 09:34:50;;;;;;;15.75;8.75;;;22.30;68.60;;;;;;5003772;28;20050;-43
2022/05/10 09:37:19;;;;;;;16.67;9.32;;;22.40;69.00;;;;;;5006828;28;20053;-43
2022/05/10 09:39:48;;;;;;;13.02;7.93;;;22.40;68.90;;;;;;5003643;28;20466;-43
2022/05/10 09:42:26;;;;;;;12.43;8.10;;;22.50;69.00;;;;;;4999237;28;20057;-43
2022/05/10 09:44:58;;;;;;;18.92;9.07;;;22.60;68.80;;;;;;5008936;28;20402;-43
2022/05/10 09:47:25;;;;;;;15.77;8.45;;;22.70;69.00;;;;;;5009913;28;20064;-43
2022/05/10 09:49:54;;;;;;;12.05;7.82;;;22.80;68.30;;;;;;5007408;28;20052;-43
2022/05/10 09:52:22;;;;;;;15.77;8.50;;;23.00;68.10;;;;;;5010940;28;20088;-43
2022/05/10 09:54:50;;;;;;;17.17;8.52;;;23.10;68.10;;;;;;5011990;28;20497;-43
2022/05/10 09:57:26;;;;;;;14.85;8.35;;;23.10;67.70;;;;;;5004040;28;20046;-43
2022/05/10 09:59:53;;;;;;;17.67;7.93;;;23.20;67.20;;;;;;5019391;28;20056;-43
2022/05/10 10:02:28;;;;;;;14.38;8.55;;;23.20;67.40;;;;;;5007654;28;20046;-43
2022/05/10 10:04:56;;;;;;;15.82;7.97;;;23.20;66.80;;;;;;5011250;28;20132;-43
2022/05/10 10:07:24;;;;;;;18.75;7.82;;;23.30;66.90;;;;;;5011814;28;20037;-43
2022/05/10 10:09:52;;;;;;;14.32;7.82;;;23.30;66.90;;;;;;5011493;28;20058;-43
2022/05/10 10:12:30;;;;;;;10.20;7.65;;;23.50;66.70;;;;;;5010538;28;20050;-43
2022/05/10 10:14:57;;;;;;;17.00;7.72;;;23.60;66.50;;;;;;5010894;28;20058;-43
2022/05/10 10:17:25;;;;;;;22.10;6.88;;;23.70;66.20;;;;;;5011728;28;20130;-43
2022/05/10 10:19:56;;;;;;;15.05;7.40;;;23.80;66.00;;;;;;5010554;28;20054;-43
2022/05/10 10:22:27;;;;;;;14.03;7.10;;;23.90;65.70;;;;;;5004158;28;20613;-43
2022/05/10 10:24:57;;;;;;;14.05;6.32;;;24.00;65.70;;;;;;5010245;28;20292;-43
2022/05/10 10:27:26;;;;;;;14.55;6.45;;;24.10;65.30;;;;;;5010740;28;20068;-43
2022/05/10 10:29:55;;;;;;;16.15;6.82;;;24.20;65.20;;;;;;5011326;28;20042;-43
2022/05/10 10:32:23;;;;;;;12.52;7.20;;;24.30;64.90;;;;;;5014033;28;20046;-43
2022/05/10 10:34:51;;;;;;;15.05;7.15;;;24.50;64.30;;;;;;5014833;28;20050;-43
2022/05/10 10:37:23;;;;;;;14.95;6.80;;;24.60;63.90;;;;;;5015451;28;20057;-43
2022/05/10 10:39:52;;;;;;;11.80;6.57;;;24.70;63.60;;;;;;5015424;28;20056;-43
2022/05/10 10:42:24;;;;;;;14.00;7.63;;;24.70;63.40;;;;;;5005036;28;20049;-43
2022/05/10 10:44:54;;;;;;;12.43;7.53;;;24.80;63.10;;;;;;4995751;28;20054;-43
2022/05/10 10:47:23;;;;;;;13.00;7.03;;;24.70;63.00;;;;;;4995653;28;20053;-43
2022/05/10 10:49:52;;;;;;;15.85;7.72;;;24.80;63.50;;;;;;4994454;28;20050;-43
2022/05/10 10:52:21;;;;;;;13.82;7.50;;;24.80;63.90;;;;;;4994997;28;20515;-43
2022/05/10 10:54:48;;;;;;;14.30;7.47;;;24.90;64.00;;;;;;4995314;28;20469;-43
2022/05/10 10:57:35;;;;;;;15.65;7.35;;;25.00;63.80;;;;;;4994822;28;20099;-43
2022/05/10 11:00:12;;;;;;;11.57;7.45;;;25.10;63.80;;;;;;4994894;28;20043;-43
2022/05/10 11:03:09;;;;;;;17.20;6.55;;;25.20;64.10;;;;;;4987307;28;20050;-43
2022/05/10 11:06:00;;;;;;;12.40;6.40;;;25.20;63.60;;;;;;4978975;28;20054;-42
2022/05/10 11:08:36;;;;;;;8.82;6.03;;;25.20;62.40;;;;;;4969941;28;20058;-43
2022/05/10 11:11:08;;;;;;;9.50;6.10;;;25.00;62.80;;;;;;4991353;28;20060;-43
2022/05/10 11:13:38;;;;;;;12.20;6.40;;;24.90;62.80;;;;;;4970207;28;20101;-43
2022/05/10 11:16:15;;;;;;;11.93;5.47;;;24.80;62.90;;;;;;4995257;28;20081;-43
2022/05/10 11:18:50;;;;;;;12.45;6.15;;;24.80;63.50;;;;;;4988552;28;20077;-43
2022/05/10 11:21:23;;;;;;;10.85;6.22;;;24.70;63.80;;;;;;4994046;28;20529;-44
2022/05/10 11:23:55;;;;;;;11.38;6.10;;;24.70;63.90;;;;;;4994685;28;20054;-43
2022/05/10 11:26:32;;;;;;;9.48;5.47;;;24.70;64.00;;;;;;4977812;28;20046;-43
2022/05/10 11:29:22;;;;;;;15.15;5.97;;;24.70;64.10;;;;;;4977626;28;20058;-43
2022/05/10 11:31:52;;;;;;;12.65;6.05;;;24.80;64.20;;;;;;4988536;28;20141;-43
2022/05/10 11:34:43;;;;;;;15.10;6.65;;;24.80;63.50;;;;;;4977171;28;20058;-43
2022/05/10 11:37:11;;;;;;;15.02;6.53;;;24.90;62.80;;;;;;4994860;28;20521;-43
2022/05/10 11:40:06;;;;;;;18.65;6.35;;;25.00;62.70;;;;;;4994520;28;20065;-43
2022/05/10 11:42:37;;;;;;;34.08;6.90;;;25.30;63.10;;;;;;4995143;28;20057;-43
2022/05/10 11:45:29;;;;;;;18.30;6.72;;;25.50;61.70;;;;;;5014395;28;20054;-43
2022/05/10 11:48:21;;;;;;;16.27;6.55;;;25.70;60.80;;;;;;5013189;28;20068;-43
2022/05/10 11:54:05;;;;;;;15.48;6.35;;;25.90;61.00;;;;;;5011494;28;20077;-43
2022/05/10 11:56:34;;;;;;;18.45;6.10;;;26.00;60.30;;;;;;5010175;28;20062;-43
2022/05/10 11:59:03;;;;;;;16.83;5.60;;;26.10;59.90;;;;;;5013138;28;20056;-43
2022/05/10 12:01:40;;;;;;;17.33;5.43;;;26.10;59.40;;;;;;5012611;28;20137;-42
2022/05/10 12:04:07;;;;;;;15.75;5.20;;;26.20;60.00;;;;;;5012356;28;20052;-42
2022/05/10 12:06:47;;;;;;;28.90;5.32;;;26.20;60.00;;;;;;5004926;28;20050;-42
2022/05/10 12:09:16;;;;;;;19.30;5.20;;;26.20;59.10;;;;;;5011761;28;20046;-42
2022/05/10 12:11:44;;;;;;;12.70;5.38;;;26.20;59.00;;;;;;5011555;28;20449;-42
2022/05/10 12:23:15;;;;;;;19.92;6.57;;;26.20;58.60;;;;;;5009049;28;20042;-42
2022/05/10 12:25:57;;;;;;;26.17;6.22;;;26.10;58.30;;;;;;5008630;28;20046;-44
2022/05/10 12:28:45;;;;;;;16.63;5.35;;;26.20;58.50;;;;;;5005659;28;20054;-42
2022/05/10 12:31:25;;;;;;;21.25;6.07;;;26.20;57.60;;;;;;5004822;28;20056;-42
2022/05/10 12:33:59;;;;;;;13.80;4.83;;;26.10;58.20;;;;;;5010419;28;20473;-42
2022/05/10 12:36:29;;;;;;;6.57;4.00;;;26.00;57.80;;;;;;5010709;28;20331;-43
2022/05/10 12:38:56;;;;;;;16.52;4.22;;;25.90;58.00;;;;;;5011051;28;20046;-43
2022/05/10 12:41:42;;;;;;;11.25;4.38;;;25.90;57.80;;;;;;5011417;28;20156;-43
2022/05/10 12:44:32;;;;;;;16.55;3.95;;;26.00;57.90;;;;;;5004082;28;20068;-43
2022/05/10 12:47:09;;;;;;;21.60;4.30;;;26.20;57.90;;;;;;5012031;28;20060;-43
2022/05/10 12:49:44;;;;;;;14.48;4.22;;;26.40;57.70;;;;;;5011854;28;20057;-43
2022/05/10 12:52:22;;;;;;;20.33;5.05;;;26.60;57.90;;;;;;5011468;28;20414;-43
2022/05/10 12:54:51;;;;;;;31.15;4.88;;;26.70;56.90;;;;;;5010056;28;20054;-43
2022/05/10 12:57:24;;;;;;;23.83;4.95;;;26.70;56.70;;;;;;5009749;28;20058;-43
2022/05/10 12:59:56;;;;;;;14.32;4.90;;;26.70;56.10;;;;;;5000919;28;20384;-43
2022/05/10 13:02:23;;;;;;;13.13;5.05;;;26.50;56.00;;;;;;5006241;28;20041;-43
2022/05/10 13:04:52;;;;;;;18.80;5.07;;;26.30;56.20;;;;;;5010061;28;20049;-43
2022/05/10 13:07:38;;;;;;;26.45;5.28;;;26.10;56.50;;;;;;5008048;28;20065;-42
2022/05/10 13:10:07;;;;;;;16.42;5.28;;;25.90;56.50;;;;;;5005402;28;20512;-43
2022/05/10 13:12:36;;;;;;;11.10;4.28;;;25.90;56.90;;;;;;5004123;28;20053;-43
2022/05/10 13:15:10;;;;;;;17.83;4.22;;;25.70;57.50;;;;;;5008482;28;20080;-43